createdAt,value
2022-07-26T00:04:45.955Z,24.71
2022-07-26T00:09:54.069Z,24.66
2022-07-26T00:14:58.109Z,24.61
2022-07-26T00:20:01.592Z,24.53
2022-07-26T00:25:09.312Z,24.54
2022-07-26T00:30:14.083Z,24.53
2022-07-26T00:35:24.949Z,24.54
2022-07-26T00:40:28.508Z,24.50
2022-07-26T00:45:31.871Z,24.50
2022-07-26T00:50:35.952Z,24.48
2022-07-26T00:55:39.901Z,24.49
2022-07-26T01:00:43.751Z,24.48
2022-07-26T01:05:47.787Z,24.46
2022-07-26T01:10:51.927Z,24.43
2022-07-26T01:15:55.774Z,24.41
2022-07-26T01:21:13.182Z,24.40
2022-07-26T01:26:17.890Z,24.38
2022-07-26T01:31:27.466Z,24.35
2022-07-26T01:36:31.162Z,24.32
2022-07-26T01:41:37.430Z,24.28
2022-07-26T01:46:41.874Z,24.24
2022-07-26T01:51:45.383Z,24.19
2022-07-26T01:56:48.906Z,24.17
2022-07-26T02:01:52.538Z,24.14
2022-07-26T02:06:56.381Z,24.14
2022-07-26T02:11:59.892Z,24.10
2022-07-26T02:17:10.817Z,24.12
2022-07-26T02:22:14.392Z,24.11
2022-07-26T02:27:18.879Z,24.10
2022-07-26T02:32:22.357Z,24.11
2022-07-26T02:37:25.689Z,24.12
2022-07-26T02:42:29.083Z,24.09
2022-07-26T02:47:32.858Z,24.08
2022-07-26T02:52:36.276Z,24.06
2022-07-26T02:57:46.404Z,24.04
2022-07-26T03:02:53.715Z,24.03
2022-07-26T03:08:07.569Z,24.02
2022-07-26T03:13:10.948Z,24.00
2022-07-26T03:18:14.575Z,24.03
2022-07-26T03:23:18.037Z,24.03
2022-07-26T03:28:21.700Z,24.07
2022-07-26T03:33:25.245Z,24.11
2022-07-26T03:38:36.940Z,24.14
2022-07-26T03:43:40.777Z,24.26
2022-07-26T03:48:44.641Z,24.38
2022-07-26T03:53:48.030Z,24.42
2022-07-26T03:59:15.328Z,24.43
2022-07-26T04:04:18.984Z,24.45
2022-07-26T04:09:28.926Z,24.46
2022-07-26T04:14:32.453Z,24.47
2022-07-26T04:19:37.499Z,24.52
2022-07-26T04:24:43.615Z,24.59
2022-07-26T04:29:50.339Z,24.77
2022-07-26T04:34:59.433Z,24.91
2022-07-26T04:40:03.694Z,25.07
2022-07-26T04:45:08.875Z,25.17
2022-07-26T04:50:13.147Z,25.29
2022-07-26T04:55:19.365Z,25.47
2022-07-26T05:00:24.095Z,25.64
2022-07-26T05:05:30.312Z,25.88
2022-07-26T05:10:37.285Z,26.26
2022-07-26T05:15:42.267Z,26.36
2022-07-26T05:20:46.567Z,26.62
2022-07-26T05:25:50.367Z,26.62
2022-07-26T05:30:53.767Z,26.57
2022-07-26T05:35:57.450Z,26.64
2022-07-26T05:41:01.582Z,27.29
2022-07-26T05:46:09.588Z,28.07
2022-07-26T05:51:13.587Z,28.55
2022-07-26T05:56:17.129Z,28.57
2022-07-26T06:01:20.914Z,28.74
2022-07-26T06:06:26.716Z,28.86
2022-07-26T06:11:30.197Z,28.71
2022-07-26T06:16:33.886Z,28.64
2022-07-26T06:21:37.555Z,28.69
2022-07-26T06:26:41.119Z,28.70
2022-07-26T06:31:45.581Z,28.74
2022-07-26T06:36:49.382Z,29.98
2022-07-26T06:41:53.024Z,33.50
2022-07-26T06:46:59.823Z,36.12
2022-07-26T06:52:03.288Z,37.55
2022-07-26T06:57:06.485Z,37.53
2022-07-26T07:02:10.522Z,36.51
2022-07-26T07:07:15.033Z,36.48
2022-07-26T07:12:20.159Z,36.96
2022-07-26T07:17:24.520Z,37.24
2022-07-26T07:22:27.918Z,37.61
2022-07-26T07:27:32.151Z,37.99
2022-07-26T07:32:38.580Z,38.17
2022-07-26T07:37:52.746Z,37.76
2022-07-26T07:42:57.869Z,37.38
2022-07-26T07:48:01.257Z,36.58
2022-07-26T07:53:04.845Z,35.77
2022-07-26T07:58:09.551Z,35.10
2022-07-26T08:03:13.168Z,34.61
2022-07-26T08:08:22.823Z,34.29
2022-07-26T08:13:26.523Z,34.05
2022-07-26T08:18:30.588Z,33.80
2022-07-26T08:23:34.323Z,33.64
2022-07-26T08:28:47.316Z,33.58
2022-07-26T08:33:52.485Z,33.58
2022-07-26T08:38:56.191Z,33.65
2022-07-26T08:44:12.196Z,33.67
2022-07-26T08:49:21.487Z,33.59
2022-07-26T08:54:24.968Z,33.54
2022-07-26T08:59:28.778Z,33.49
2022-07-26T09:04:43.164Z,33.43
2022-07-26T09:10:12.670Z,33.39
2022-07-26T09:15:23.374Z,33.26
2022-07-26T09:20:29.265Z,33.04
2022-07-26T09:25:38.797Z,32.91
2022-07-26T09:30:57.957Z,32.89
2022-07-26T09:36:07.268Z,32.74
2022-07-26T09:41:30.550Z,32.44
2022-07-26T09:46:34.510Z,32.37
2022-07-26T09:51:41.590Z,32.34
2022-07-26T09:56:53.174Z,32.35
2022-07-26T10:02:05.170Z,32.31
2022-07-26T10:07:10.715Z,32.25
2022-07-26T10:12:16.939Z,32.18
2022-07-26T10:17:31.633Z,32.17
2022-07-26T10:22:41.093Z,32.08
2022-07-26T10:27:56.391Z,32.02
2022-07-26T10:33:07.335Z,31.94
2022-07-26T10:38:15.334Z,31.90
2022-07-26T10:49:05.257Z,31.74
2022-07-26T10:54:11.705Z,31.69
2022-07-26T10:59:54.318Z,31.61
2022-07-26T11:05:12.938Z,31.57
2022-07-26T11:10:16.858Z,31.48
2022-07-26T11:15:20.764Z,31.37
2022-07-26T11:20:29.860Z,31.31
2022-07-26T11:25:33.859Z,31.25
2022-07-26T11:30:55.907Z,31.22
2022-07-26T11:35:59.362Z,31.19
2022-07-26T11:41:02.772Z,31.24
2022-07-26T11:46:07.055Z,31.06
2022-07-26T11:51:16.053Z,30.93
2022-07-26T11:56:29.306Z,30.79
2022-07-26T12:01:33.158Z,30.73
2022-07-26T12:06:39.437Z,30.69
2022-07-26T12:11:43.139Z,30.62
2022-07-26T12:16:47.794Z,30.55
2022-07-26T12:22:13.379Z,30.48
2022-07-26T12:27:22.151Z,30.34
2022-07-26T12:32:38.396Z,30.25
2022-07-26T12:37:51.146Z,30.15
2022-07-26T12:43:01.075Z,30.12
2022-07-26T12:48:09.281Z,30.00
2022-07-26T12:53:13.136Z,29.84
2022-07-26T12:58:16.707Z,29.73
2022-07-26T13:03:20.557Z,29.65
2022-07-26T13:08:24.258Z,29.51
2022-07-26T13:13:28.147Z,29.46
2022-07-26T13:18:31.687Z,29.41
2022-07-26T13:23:36.705Z,29.43
2022-07-26T13:28:41.788Z,29.41
2022-07-26T13:33:47.885Z,29.35
2022-07-26T13:38:51.509Z,29.39
2022-07-26T13:43:55.292Z,29.47
2022-07-26T13:49:01.621Z,29.43
2022-07-26T13:54:05.558Z,29.37
2022-07-26T13:59:09.828Z,29.31
2022-07-26T14:04:14.687Z,29.22
2022-07-26T14:09:19.952Z,29.19
2022-07-26T14:14:23.501Z,29.13
2022-07-26T14:19:26.883Z,29.11
2022-07-26T14:24:30.361Z,29.08
2022-07-26T14:29:33.533Z,29.03
2022-07-26T14:34:37.025Z,28.92
2022-07-26T14:39:42.456Z,28.85
2022-07-26T14:44:48.234Z,28.76
2022-07-26T14:49:51.859Z,28.72
2022-07-26T14:54:55.701Z,28.73
2022-07-26T14:59:59.664Z,28.74
2022-07-26T15:05:03.364Z,28.70
2022-07-26T15:10:08.899Z,28.64
2022-07-26T15:15:12.549Z,28.55
2022-07-26T15:20:16.307Z,28.48
2022-07-26T15:25:20.598Z,28.38
2022-07-26T15:30:25.640Z,28.29
2022-07-26T15:35:32.130Z,28.22
2022-07-26T15:40:39.650Z,28.16
2022-07-26T15:45:43.017Z,28.11
2022-07-26T15:50:49.382Z,28.03
2022-07-26T15:55:53.680Z,27.92
2022-07-26T16:00:57.057Z,27.84
2022-07-26T16:06:05.739Z,27.78
2022-07-26T16:11:09.966Z,27.66
2022-07-26T16:16:14.180Z,27.57
2022-07-26T16:21:18.328Z,27.46
2022-07-26T16:26:22.089Z,27.39
2022-07-26T16:31:25.654Z,27.30
2022-07-26T16:36:29.065Z,27.21
2022-07-26T16:41:32.405Z,27.09
2022-07-26T16:46:35.957Z,27.02
2022-07-26T16:51:39.495Z,26.93
2022-07-26T16:56:43.857Z,26.80
2022-07-26T17:01:47.478Z,26.71
2022-07-26T17:07:14.648Z,26.60
2022-07-26T17:12:15.208Z,26.52
2022-07-26T17:17:18.554Z,26.44
2022-07-26T17:22:22.290Z,26.38
2022-07-26T17:27:25.756Z,26.34
2022-07-26T17:32:29.486Z,26.27
2022-07-26T17:37:32.757Z,26.21
2022-07-26T17:42:37.813Z,26.16
2022-07-26T17:47:42.393Z,26.12
2022-07-26T17:52:46.036Z,26.08
2022-07-26T17:57:55.683Z,26.02
2022-07-26T18:02:59.271Z,25.93
2022-07-26T18:08:02.628Z,25.87
2022-07-26T18:13:06.111Z,25.79
2022-07-26T18:18:09.460Z,25.74
2022-07-26T18:23:12.813Z,25.68
2022-07-26T18:28:16.697Z,25.62
2022-07-26T18:33:20.298Z,25.60
2022-07-26T18:38:23.700Z,25.54
2022-07-26T18:43:27.655Z,25.52
2022-07-26T18:48:31.686Z,25.50
2022-07-26T18:53:36.255Z,25.45
2022-07-26T18:58:39.786Z,25.40
2022-07-26T19:03:43.586Z,25.37
2022-07-26T19:08:47.561Z,25.34
2022-07-26T19:13:50.996Z,25.32
2022-07-26T19:18:57.478Z,25.32
2022-07-26T19:24:01.207Z,25.32
2022-07-26T19:29:04.822Z,25.32
2022-07-26T19:34:09.287Z,25.30
2022-07-26T19:39:13.184Z,25.26
2022-07-26T19:44:17.412Z,25.23
2022-07-26T19:49:20.995Z,25.20
2022-07-26T19:54:25.242Z,25.16
2022-07-26T19:59:28.980Z,25.12
2022-07-26T20:04:32.522Z,25.10
2022-07-26T20:09:36.285Z,25.06
2022-07-26T20:14:40.359Z,25.03
2022-07-26T20:19:44.037Z,25.04
2022-07-26T20:24:47.435Z,25.01
2022-07-26T20:29:51.692Z,25.00
2022-07-26T20:34:56.198Z,24.99
2022-07-26T20:39:59.409Z,24.98
2022-07-26T20:45:05.036Z,24.97
2022-07-26T20:50:14.707Z,24.90
2022-07-26T20:55:18.272Z,24.86
2022-07-26T21:00:22.066Z,24.84
2022-07-26T21:05:29.693Z,24.82
2022-07-26T21:10:36.191Z,24.80
2022-07-26T21:15:40.189Z,24.78
2022-07-26T21:20:43.899Z,24.77
2022-07-26T21:25:47.632Z,24.76
2022-07-26T21:30:51.105Z,24.75
2022-07-26T21:35:54.446Z,24.69
2022-07-26T21:40:59.565Z,24.65
2022-07-26T21:46:08.965Z,24.60
2022-07-26T21:51:15.689Z,24.57
2022-07-26T21:56:21.431Z,24.53
2022-07-26T22:01:28.181Z,24.51
2022-07-26T22:06:31.741Z,24.50
2022-07-26T22:11:35.482Z,24.48
2022-07-26T22:16:39.363Z,24.47
2022-07-26T22:21:42.944Z,24.46
2022-07-26T22:26:46.606Z,24.44
2022-07-26T22:31:50.338Z,24.42
2022-07-26T22:36:55.100Z,24.43
2022-07-26T22:42:14.744Z,24.39
2022-07-26T22:47:18.764Z,24.35
2022-07-26T22:52:21.991Z,24.33
2022-07-26T22:57:26.060Z,24.33
2022-07-26T23:02:29.779Z,24.35
2022-07-26T23:07:33.451Z,24.32
2022-07-26T23:12:37.770Z,24.29
2022-07-26T23:17:41.690Z,24.25
2022-07-26T23:22:45.813Z,24.21
2022-07-26T23:27:49.450Z,24.17
2022-07-26T23:32:53.049Z,24.17
2022-07-26T23:37:56.701Z,24.14
2022-07-26T23:43:00.081Z,24.12
2022-07-26T23:48:03.752Z,24.14
2022-07-26T23:53:07.736Z,24.14
2022-07-26T23:58:11.702Z,24.10
